TNCC/CUR METAR and TAF weather

Enter ICAO airport designator
Station Type Date Time Source
TNCC METAR 2020/03/29 14:00 UTC NOAA

TNCC 291400Z 09013KT 9999 FEW023 29/22 Q1016 NOSIG=


Station Type Date Time Source
TNCC Decoded METAR 2020/03/29 14:00 UTC NOAA

Hato Airport, Curacao, Netherlands Antilles (TNCC) 12-12N 068-58W 67M
Mar 29, 2020 - 10:00 AM EDT / 2020.03.29 1400 UTC
Wind: from the E (090 degrees) at 15 MPH (13 KT):0
Visibility: greater than 7 mile(s):0
Sky conditions: mostly clear
Temperature: 84 F (29 C)
Dew Point: 71 F (22 C)
Relative Humidity: 65%
Pressure (altimeter): 30.00 in. Hg (1016 hPa)
ob: TNCC 291400Z 09013KT 9999 FEW023 29/22 Q1016 NOSIG=
cycle: 14

Station Type Date Time Source
TNCC TAF 2020/03/29 12:22 UTC NOAA

TAF TNCC 291115Z 2912/3012 11014KT 9999 SCT022
TEMPO 3006/3012 BKN015

Example: see airport list